Time,TemperatureF,DewpointF,PressureIn,WindDirection,WindDirectionDegrees,WindSpeedMPH,WindSpeedGustMPH,Humidity,HourlyPrecipIn,Conditions,Clouds,dailyrainin,SolarRadiationWatts/m^2,SoftwareType,DateUTC
2013-03-30 00:00:00,41.8,31.7,30.07,North,11,0.0,0.0,67,0.00,,OVC,0.00,0.00,VWS V14.00,2013-03-30 04:00:00,
2013-03-30 00:01:00,41.8,31.7,30.07,North,11,0.0,0.0,67,0.00,,OVC,0.00,0.00,VWS V14.00,2013-03-30 04:01:00,
2013-03-30 00:03:00,41.8,31.7,30.07,North,11,0.0,0.0,67,0.00,,OVC,0.00,0.00,VWS V14.00,2013-03-30 04:03:00,
2013-03-30 00:08:00,41.7,31.6,30.07,North,11,0.0,0.0,67,0.00,,OVC,0.00,0.00,VWS V14.00,2013-03-30 04:08:00,
2013-03-30 00:13:00,41.6,30.7,30.07,North,11,0.0,0.0,65,0.00,,OVC,0.00,0.00,VWS V14.00,2013-03-30 04:13:00,
2013-03-30 00:15:00,41.6,30.7,30.07,North,11,0.0,1.0,65,0.00,,OVC,0.00,0.00,VWS V14.00,2013-03-30 04:15:00,
2013-03-30 00:18:00,41.5,31.0,30.08,North,11,0.0,0.0,66,0.00,,OVC,0.00,0.00,VWS V14.00,2013-03-30 04:18:00,
2013-03-30 00:23:00,41.4,30.9,30.07,North,11,0.0,0.0,66,0.00,,OVC,0.00,0.00,VWS V14.00,2013-03-30 04:23:00,
2013-03-30 00:29:00,41.4,31.3,30.07,North,11,0.0,0.0,67,0.00,,OVC,0.00,0.00,VWS V14.00,2013-03-30 04:29:00,
2013-03-30 00:30:00,41.4,31.3,30.07,North,11,0.0,0.0,67,0.00,,OVC,0.00,0.00,VWS V14.00,2013-03-30 04:30:00,
2013-03-30 00:34:00,41.4,31.6,30.07,North,11,0.0,0.0,68,0.00,,OVC,0.00,0.00,VWS V14.00,2013-03-30 04:34:00,
2013-03-30 00:39:00,41.5,31.7,30.07,North,11,0.0,0.0,68,0.00,,OVC,0.00,0.00,VWS V14.00,2013-03-30 04:39:00,
2013-03-30 00:44:00,41.3,31.2,30.07,North,11,0.0,0.0,67,0.00,,OVC,0.00,0.00,VWS V14.00,2013-03-30 04:44:00,
2013-03-30 00:45:00,41.4,31.3,30.07,North,11,0.0,1.0,67,0.00,,OVC,0.00,0.00,VWS V14.00,2013-03-30 04:45:00,
2013-03-30 00:49:00,41.3,30.8,30.07,North,11,0.0,0.0,66,0.00,,OVC,0.00,0.00,VWS V14.00,2013-03-30 04:49:00,
2013-03-30 00:54:00,41.2,31.1,30.07,North,11,0.0,0.0,67,0.00,,OVC,0.00,0.00,VWS V14.00,2013-03-30 04:54:00,
2013-03-30 00:59:00,41.2,31.5,30.07,North,11,0.0,0.0,68,0.00,,OVC,0.00,0.00,VWS V14.00,2013-03-30 04:59:00,
2013-03-30 01:00:00,41.2,31.5,30.07,North,11,0.0,0.0,68,0.00,,OVC,0.00,0.00,VWS V14.00,2013-03-30 05:00:00,
2013-03-30 01:04:00,41.3,31.9,30.07,North,11,0.0,0.0,69,0.00,,OVC,0.00,0.00,VWS V14.00,2013-03-30 05:04:00,
2013-03-30 01:09:00,41.3,32.3,30.08,North,11,0.0,1.0,70,0.00,,OVC,0.00,0.00,VWS V14.00,2013-03-30 05:09:00,
2013-03-30 01:14:00,41.3,32.3,30.08,North,11,0.0,0.0,70,0.00,,OVC,0.00,0.00,VWS V14.00,2013-03-30 05:14:00,
2013-03-30 01:15:00,41.3,32.3,30.08,North,11,0.0,1.0,70,0.00,,OVC,0.00,0.00,VWS V14.00,2013-03-30 05:15:00,
2013-03-30 01:19:00,41.3,32.6,30.07,North,11,0.0,0.0,71,0.00,,OVC,0.00,0.00,VWS V14.00,2013-03-30 05:19:00,
2013-03-30 01:24:00,41.4,33.1,30.07,North,11,0.0,0.0,72,0.00,,OVC,0.00,0.00,VWS V14.00,2013-03-30 05:24:00,
2013-03-30 01:29:00,41.5,33.2,30.07,North,11,0.0,0.0,72,0.00,,OVC,0.00,0.00,VWS V14.00,2013-03-30 05:29:00,
2013-03-30 01:30:00,41.5,33.2,30.07,North,11,0.0,0.0,72,0.00,,OVC,0.00,0.00,VWS V14.00,2013-03-30 05:30:00,
2013-03-30 01:34:00,41.6,33.6,30.08,North,11,0.0,0.0,73,0.00,,OVC,0.00,0.00,VWS V14.00,2013-03-30 05:34:00,
2013-03-30 01:39:00,41.7,33.7,30.07,North,11,0.0,0.0,73,0.00,,OVC,0.00,0.00,VWS V14.00,2013-03-30 05:39:00,
2013-03-30 01:44:00,41.7,33.7,30.07,North,11,0.0,0.0,73,0.00,,OVC,0.00,0.00,VWS V14.00,2013-03-30 05:44:00,
2013-03-30 01:45:00,41.7,33.7,30.07,North,11,0.0,0.0,73,0.00,,OVC,0.00,0.00,VWS V14.00,2013-03-30 05:45:00,
2013-03-30 01:49:00,41.7,33.7,30.07,North,11,0.0,0.0,73,0.00,,OVC,0.00,0.00,VWS V14.00,2013-03-30 05:49:00,
2013-03-30 01:54:00,41.7,33.7,30.07,North,11,0.0,0.0,73,0.00,,OVC,0.00,0.00,VWS V14.00,2013-03-30 05:54:00,
2013-03-30 01:59:00,41.6,33.6,30.07,North,11,0.0,0.0,73,0.00,,OVC,0.00,0.00,VWS V14.00,2013-03-30 05:59:00,
2013-03-30 02:00:00,41.6,33.3,30.07,North,11,0.0,0.0,72,0.00,,OVC,0.00,0.00,VWS V14.00,2013-03-30 06:00:00,
2013-03-30 02:04:00,41.5,33.2,30.07,SW,217,0.0,3.0,72,0.00,,OVC,0.00,0.00,VWS V14.00,2013-03-30 06:04:00,
2013-03-30 02:09:00,41.3,32.6,30.07,SW,217,0.0,3.0,71,0.00,,OVC,0.00,0.00,VWS V14.00,2013-03-30 06:09:00,
2013-03-30 02:15:00,41.1,32.4,30.07,SW,217,0.0,0.0,71,0.00,,OVC,0.00,0.00,VWS V14.00,2013-03-30 06:15:00,
2013-03-30 02:20:00,41.1,32.4,30.07,SW,217,0.0,0.0,71,0.00,,OVC,0.00,0.00,VWS V14.00,2013-03-30 06:20:00,
2013-03-30 02:25:00,40.9,32.2,30.07,SW,217,0.0,0.0,71,0.00,,OVC,0.00,0.00,VWS V14.00,2013-03-30 06:25:00,
2013-03-30 02:30:00,40.9,32.2,30.07,SW,217,0.0,0.0,71,0.00,,OVC,0.00,0.00,VWS V14.00,2013-03-30 06:30:00,
2013-03-30 02:35:00,40.9,32.9,30.07,SW,217,0.0,0.0,73,0.00,,OVC,0.00,0.00,VWS V14.00,2013-03-30 06:35:00,
2013-03-30 02:40:00,40.9,32.9,30.07,SW,217,0.0,0.0,73,0.00,,OVC,0.00,0.00,VWS V14.00,2013-03-30 06:40:00,
2013-03-30 02:46:00,40.8,32.8,30.07,SW,217,0.0,0.0,73,0.00,,OVC,0.00,0.00,VWS V14.00,2013-03-30 06:46:00,
2013-03-30 02:51:00,40.6,32.6,30.06,SW,217,0.0,0.0,73,0.00,,OVC,0.00,0.00,VWS V14.00,2013-03-30 06:51:00,
2013-03-30 02:56:00,40.4,32.1,30.06,SW,217,0.0,0.0,72,0.00,,OVC,0.00,0.00,VWS V14.00,2013-03-30 06:56:00,
2013-03-30 03:01:00,40.0,31.7,30.06,SW,217,0.0,0.0,72,0.00,,OVC,0.00,0.00,VWS V14.00,2013-03-30 07:01:00,
2013-03-30 03:06:00,39.7,31.4,30.06,SW,217,0.0,0.0,72,0.00,,OVC,0.00,0.00,VWS V14.00,2013-03-30 07:06:00,
2013-03-30 03:11:00,39.5,31.6,30.06,SW,217,0.0,0.0,73,0.00,,OVC,0.00,0.00,VWS V14.00,2013-03-30 07:11:00,
2013-03-30 03:16:00,39.2,31.0,30.06,SW,217,0.0,0.0,72,0.00,,OVC,0.00,0.00,VWS V14.00,2013-03-30 07:16:00,
2013-03-30 03:22:00,38.8,30.9,30.06,SW,217,0.0,0.0,73,0.00,,OVC,0.00,0.00,VWS V14.00,2013-03-30 07:22:00,
2013-03-30 03:27:00,38.4,30.5,30.06,SW,217,0.0,0.0,73,0.00,,OVC,0.00,0.00,VWS V14.00,2013-03-30 07:27:00,
2013-03-30 03:32:00,38.2,30.7,30.06,SW,217,0.0,0.0,74,0.00,,OVC,0.00,0.00,VWS V14.00,2013-03-30 07:32:00,
2013-03-30 03:37:00,37.9,31.0,30.06,SW,217,0.0,0.0,76,0.00,,OVC,0.00,0.00,VWS V14.00,2013-03-30 07:37:00,
2013-03-30 03:42:00,37.9,31.0,30.06,SW,217,0.0,0.0,76,0.00,,OVC,0.00,0.00,VWS V14.00,2013-03-30 07:42:00,
2013-03-30 03:47:00,37.7,30.5,30.06,SW,217,0.0,0.0,75,0.00,,OVC,0.00,0.00,VWS V14.00,2013-03-30 07:47:00,
2013-03-30 03:52:00,37.5,30.3,30.06,SW,217,0.0,0.0,75,0.00,,OVC,0.00,0.00,VWS V14.00,2013-03-30 07:52:00,
2013-03-30 03:57:00,37.4,30.2,30.06,SW,217,0.0,0.0,75,0.00,,OVC,0.00,0.00,VWS V14.00,2013-03-30 07:57:00,
2013-03-30 04:02:00,37.0,29.8,30.06,SW,217,0.0,0.0,75,0.00,,OVC,0.00,0.00,VWS V14.00,2013-03-30 08:02:00,
2013-03-30 04:07:00,36.6,29.8,30.06,SW,217,0.0,1.0,76,0.00,,OVC,0.00,0.00,VWS V14.00,2013-03-30 08:07:00,
2013-03-30 04:12:00,36.3,29.8,30.06,SW,217,0.0,1.0,77,0.00,,OVC,0.00,0.00,VWS V14.00,2013-03-30 08:12:00,
2013-03-30 04:18:00,36.2,30.0,30.06,SW,217,0.0,0.0,78,0.00,,OVC,0.00,0.00,VWS V14.00,2013-03-30 08:18:00,
2013-03-30 04:23:00,36.1,29.9,30.06,SW,217,0.0,0.0,78,0.00,,OVC,0.00,0.00,VWS V14.00,2013-03-30 08:23:00,
2013-03-30 04:28:00,35.9,29.7,30.06,SW,217,0.0,0.0,78,0.00,,OVC,0.00,0.00,VWS V14.00,2013-03-30 08:28:00,
2013-03-30 04:33:00,35.7,29.5,30.06,SW,217,0.0,0.0,78,0.00,,OVC,0.00,0.00,VWS V14.00,2013-03-30 08:33:00,
2013-03-30 04:38:00,35.5,29.3,30.06,SW,217,0.0,0.0,78,0.00,,OVC,0.00,0.00,VWS V14.00,2013-03-30 08:38:00,
2013-03-30 04:43:00,35.3,29.5,30.06,SW,217,0.0,0.0,79,0.00,,OVC,0.00,0.00,VWS V14.00,2013-03-30 08:43:00,
2013-03-30 04:48:00,35.3,29.5,30.06,SW,217,0.0,0.0,79,0.00,,OVC,0.00,0.00,VWS V14.00,2013-03-30 08:48:00,
2013-03-30 04:53:00,35.3,29.8,30.06,SW,217,0.0,0.0,80,0.00,,OVC,0.00,0.00,VWS V14.00,2013-03-30 08:53:00,
2013-03-30 04:58:00,35.3,30.1,30.06,SW,217,0.0,0.0,81,0.00,,OVC,0.00,0.00,VWS V14.00,2013-03-30 08:58:00,
2013-03-30 05:03:00,35.5,30.6,30.06,SW,217,0.0,0.0,82,0.00,,OVC,0.00,0.00,VWS V14.00,2013-03-30 09:03:00,
2013-03-30 05:08:00,35.5,30.3,30.06,SW,217,0.0,0.0,81,0.00,,OVC,0.00,0.00,VWS V14.00,2013-03-30 09:08:00,
2013-03-30 05:13:00,35.5,30.3,30.06,SW,217,0.0,0.0,81,0.00,,OVC,0.00,0.00,VWS V14.00,2013-03-30 09:13:00,
2013-03-30 05:18:00,35.5,30.3,30.06,SW,217,0.0,0.0,81,0.00,,OVC,0.00,0.00,VWS V14.00,2013-03-30 09:18:00,
2013-03-30 05:23:00,35.5,30.3,30.06,SW,217,0.0,0.0,81,0.00,,OVC,0.00,0.00,VWS V14.00,2013-03-30 09:23:00,
2013-03-30 05:28:00,35.6,30.7,30.06,SW,217,0.0,0.0,82,0.00,,OVC,0.00,0.00,VWS V14.00,2013-03-30 09:28:00,
2013-03-30 05:33:00,35.7,30.5,30.06,SW,217,0.0,0.0,81,0.00,,OVC,0.00,0.00,VWS V14.00,2013-03-30 09:33:00,
2013-03-30 05:34:00,35.7,30.5,30.06,SW,217,0.0,0.0,81,0.00,,OVC,0.00,0.00,VWS V14.00,2013-03-30 09:34:00,
2013-03-30 05:39:00,35.7,30.5,30.06,SW,217,0.0,0.0,81,0.00,,OVC,0.00,0.00,VWS V14.00,2013-03-30 09:39:00,
2013-03-30 05:44:00,35.7,30.8,30.07,SW,217,0.0,0.0,82,0.00,,OVC,0.00,0.00,VWS V14.00,2013-03-30 09:44:00,
2013-03-30 05:49:00,35.7,30.5,30.07,SW,217,0.0,0.0,81,0.00,,OVC,0.00,0.00,VWS V14.00,2013-03-30 09:49:00,
2013-03-30 05:54:00,35.7,30.5,30.07,SW,217,0.0,0.0,81,0.00,,OVC,0.00,0.00,VWS V14.00,2013-03-30 09:54:00,
2013-03-30 05:59:00,35.8,30.5,30.07,SW,217,0.0,0.0,81,0.00,,OVC,0.00,0.00,VWS V14.00,2013-03-30 09:59:00,
2013-03-30 06:04:00,36.0,31.0,30.07,SW,217,0.0,0.0,82,0.00,,OVC,0.00,0.00,VWS V14.00,2013-03-30 10:04:00,
2013-03-30 06:09:00,36.3,31.6,30.07,SW,217,0.0,0.0,83,0.00,,OVC,0.00,0.00,VWS V14.00,2013-03-30 10:09:00,
2013-03-30 06:14:00,36.5,32.1,30.07,SW,217,0.0,0.0,84,0.00,,OVC,0.00,0.00,VWS V14.00,2013-03-30 10:14:00,
2013-03-30 06:19:00,36.5,31.8,30.07,SW,217,0.0,0.0,83,0.00,,OVC,0.00,0.00,VWS V14.00,2013-03-30 10:19:00,
2013-03-30 06:24:00,36.6,31.9,30.07,SW,217,0.0,0.0,83,0.00,,OVC,0.00,0.00,VWS V14.00,2013-03-30 10:24:00,
2013-03-30 06:29:00,36.5,31.8,30.07,SW,217,0.0,0.0,83,0.00,,OVC,0.00,0.00,VWS V14.00,2013-03-30 10:29:00,
2013-03-30 06:35:00,36.3,31.6,30.07,SW,217,0.0,0.0,83,0.00,,OVC,0.00,0.00,VWS V14.00,2013-03-30 10:35:00,
2013-03-30 06:40:00,36.0,31.0,30.07,SW,217,0.0,1.0,82,0.00,,OVC,0.00,0.00,VWS V14.00,2013-03-30 10:40:00,
2013-03-30 06:45:00,35.9,31.0,30.07,SW,217,0.0,0.0,82,0.00,,OVC,0.00,0.00,VWS V14.00,2013-03-30 10:45:00,
2013-03-30 06:50:00,35.8,31.1,30.08,SW,217,0.0,0.0,83,0.00,,OVC,0.00,0.00,VWS V14.00,2013-03-30 10:50:00,
2013-03-30 06:55:00,35.9,31.5,30.08,SW,217,0.0,0.0,84,0.00,,OVC,0.00,0.00,VWS V14.00,2013-03-30 10:55:00,
2013-03-30 07:00:00,36.0,31.4,30.08,SW,217,0.0,0.0,83,0.00,,OVC,0.00,0.00,VWS V14.00,2013-03-30 11:00:00,
2013-03-30 07:05:00,36.0,31.6,30.08,SW,217,0.0,0.0,84,0.00,,OVC,0.00,7.00,VWS V14.00,2013-03-30 11:05:00,
2013-03-30 07:10:00,36.2,31.8,30.08,SW,217,0.0,0.0,84,0.00,,OVC,0.00,9.00,VWS V14.00,2013-03-30 11:10:00,
2013-03-30 07:15:00,36.2,31.8,30.08,SW,217,0.0,0.0,84,0.00,,OVC,0.00,12.00,VWS V14.00,2013-03-30 11:15:00,
2013-03-30 07:20:00,36.2,31.5,30.08,SW,217,0.0,0.0,83,0.00,,OVC,0.00,14.00,VWS V14.00,2013-03-30 11:20:00,
2013-03-30 07:25:00,36.4,32.3,30.09,SW,217,1.0,1.0,85,0.00,,OVC,0.00,18.00,VWS V14.00,2013-03-30 11:25:00,
2013-03-30 07:30:00,36.6,32.5,30.09,SW,217,0.0,0.0,85,0.00,,OVC,0.00,21.00,VWS V14.00,2013-03-30 11:30:00,
2013-03-30 07:36:00,36.8,32.7,30.09,SW,217,0.0,1.0,85,0.00,,OVC,0.00,26.00,VWS V14.00,2013-03-30 11:36:00,
2013-03-30 07:41:00,36.9,32.5,30.09,SW,217,0.0,1.0,84,0.00,,OVC,0.00,33.00,VWS V14.00,2013-03-30 11:41:00,
2013-03-30 07:46:00,37.2,33.1,30.09,SW,217,0.0,1.0,85,0.00,,OVC,0.00,39.00,VWS V14.00,2013-03-30 11:46:00,
2013-03-30 07:52:00,37.4,33.0,30.09,SW,217,0.0,1.0,84,0.00,,OVC,0.00,49.00,VWS V14.00,2013-03-30 11:52:00,
2013-03-30 07:57:00,37.7,33.3,30.09,SW,217,1.0,1.0,84,0.00,,OVC,0.00,62.00,VWS V14.00,2013-03-30 11:57:00,
2013-03-30 08:02:00,38.0,33.3,30.10,NW,323,0.0,4.0,83,0.00,,OVC,0.00,65.00,VWS V14.00,2013-03-30 12:02:00,
2013-03-30 08:07:00,38.2,33.2,30.10,NW,323,0.0,4.0,82,0.00,,OVC,0.00,88.00,VWS V14.00,2013-03-30 12:07:00,
2013-03-30 08:12:00,38.5,33.2,30.10,NW,323,0.0,4.0,81,0.00,,OVC,0.00,88.00,VWS V14.00,2013-03-30 12:12:00,
2013-03-30 08:17:00,38.8,33.2,30.10,NW,323,0.0,0.0,80,0.00,,OVC,0.00,93.00,VWS V14.00,2013-03-30 12:17:00,
2013-03-30 08:22:00,39.2,33.6,30.10,NW,323,0.0,0.0,80,0.00,,OVC,0.00,93.00,VWS V14.00,2013-03-30 12:22:00,
2013-03-30 08:27:00,39.5,33.5,30.10,NW,323,0.0,0.0,79,0.00,,OVC,0.00,109.00,VWS V14.00,2013-03-30 12:27:00,
2013-03-30 08:32:00,39.9,33.6,30.10,NW,323,0.0,0.0,78,0.00,,OVC,0.00,125.00,VWS V14.00,2013-03-30 12:32:00,
2013-03-30 08:37:00,40.5,34.5,30.11,NW,323,0.0,2.0,79,0.00,,OVC,0.00,134.00,VWS V14.00,2013-03-30 12:37:00,
2013-03-30 08:42:00,41.0,34.3,30.11,NW,323,0.0,2.0,77,0.00,,OVC,0.00,158.00,VWS V14.00,2013-03-30 12:42:00,
2013-03-30 08:47:00,41.3,33.7,30.11,NW,323,0.0,0.0,74,0.00,,OVC,0.00,213.00,VWS V14.00,2013-03-30 12:47:00,
2013-03-30 08:52:00,41.9,33.9,30.11,NW,323,0.0,0.0,73,0.00,,OVC,0.00,162.00,VWS V14.00,2013-03-30 12:52:00,
2013-03-30 08:58:00,42.5,34.1,30.11,NW,323,0.0,0.0,72,0.00,,OVC,0.00,171.00,VWS V14.00,2013-03-30 12:58:00,
2013-03-30 09:03:00,43.1,34.0,30.11,NW,323,0.0,1.0,70,0.00,,OVC,0.00,121.00,VWS V14.00,2013-03-30 13:03:00,
2013-03-30 09:08:00,43.7,33.5,30.11,NW,323,0.0,1.0,67,0.00,,OVC,0.00,153.00,VWS V14.00,2013-03-30 13:08:00,
2013-03-30 09:13:00,44.2,34.0,30.11,NW,323,0.0,1.0,67,0.00,,OVC,0.00,357.00,VWS V14.00,2013-03-30 13:13:00,
2013-03-30 09:18:00,44.9,33.5,30.11,NW,323,0.0,2.0,64,0.00,,OVC,0.00,253.00,VWS V14.00,2013-03-30 13:18:00,
2013-03-30 09:23:00,45.3,33.9,30.11,NW,323,0.0,2.0,64,0.00,,OVC,0.00,172.00,VWS V14.00,2013-03-30 13:23:00,
2013-03-30 09:28:00,45.8,34.3,30.10,NW,323,0.0,2.0,64,0.00,,OVC,0.00,432.00,VWS V14.00,2013-03-30 13:28:00,
2013-03-30 09:33:00,46.5,35.0,30.10,NW,323,0.0,0.0,64,0.00,,OVC,0.00,313.00,VWS V14.00,2013-03-30 13:33:00,
2013-03-30 09:38:00,47.3,35.4,30.11,NW,323,0.0,1.0,63,0.00,,OVC,0.00,285.00,VWS V14.00,2013-03-30 13:38:00,
2013-03-30 09:43:00,48.0,34.8,30.10,North,5,0.0,2.0,60,0.00,,OVC,0.00,329.00,VWS V14.00,2013-03-30 13:43:00,
2013-03-30 09:48:00,48.6,34.9,30.10,North,5,0.0,0.0,59,0.00,,OVC,0.00,267.00,VWS V14.00,2013-03-30 13:48:00,
2013-03-30 09:53:00,49.2,35.1,30.10,North,5,0.0,2.0,58,0.00,,OVC,0.00,397.00,VWS V14.00,2013-03-30 13:53:00,
2013-03-30 09:58:00,49.8,32.4,30.10,East,90,0.0,0.0,51,0.00,,OVC,0.00,520.00,VWS V14.00,2013-03-30 13:58:00,
2013-03-30 10:03:00,50.5,33.5,30.10,East,99,4.0,4.0,52,0.00,,OVC,0.00,339.00,VWS V14.00,2013-03-30 14:03:00,
2013-03-30 10:08:00,51.1,32.1,30.10,ENE,76,0.0,4.0,48,0.00,,OVC,0.00,466.00,VWS V14.00,2013-03-30 14:08:00,
2013-03-30 10:13:00,51.3,33.3,30.10,ENE,58,0.0,1.0,50,0.00,,OVC,0.00,483.00,VWS V14.00,2013-03-30 14:13:00,
2013-03-30 10:18:00,51.7,33.7,30.10,East,92,0.0,3.0,50,0.00,,OVC,0.00,584.00,VWS V14.00,2013-03-30 14:18:00,
2013-03-30 10:23:00,52.1,33.0,30.10,SSE,166,0.0,4.0,48,0.00,,OVC,0.00,636.00,VWS V14.00,2013-03-30 14:23:00,
2013-03-30 10:28:00,52.3,32.7,30.10,ENE,73,0.0,1.0,47,0.00,,OVC,0.00,657.00,VWS V14.00,2013-03-30 14:28:00,
2013-03-30 10:33:00,52.6,33.0,30.10,ENE,63,1.0,3.0,47,0.00,,OVC,0.00,673.00,VWS V14.00,2013-03-30 14:33:00,
2013-03-30 10:39:00,53.1,32.9,30.10,ENE,59,2.0,3.0,46,0.00,,OVC,0.00,689.00,VWS V14.00,2013-03-30 14:39:00,
2013-03-30 10:44:00,53.4,33.2,30.10,East,82,0.0,1.0,46,0.00,,OVC,0.00,701.00,VWS V14.00,2013-03-30 14:44:00,
2013-03-30 10:49:00,54.0,32.6,30.10,NE,46,1.0,3.0,44,0.00,,OVC,0.00,717.00,VWS V14.00,2013-03-30 14:49:00,
2013-03-30 10:54:00,53.8,32.4,30.10,East,87,2.0,5.0,44,0.00,,OVC,0.00,728.00,VWS V14.00,2013-03-30 14:54:00,
2013-03-30 10:59:00,53.8,32.4,30.10,NE,53,0.0,2.0,44,0.00,,OVC,0.00,737.00,VWS V14.00,2013-03-30 14:59:00,
2013-03-30 11:04:00,54.0,32.0,30.10,ESE,116,1.0,4.0,43,0.00,,OVC,0.00,747.00,VWS V14.00,2013-03-30 15:04:00,
2013-03-30 11:09:00,54.2,32.2,30.10,ENE,63,0.0,5.0,43,0.00,,OVC,0.00,765.00,VWS V14.00,2013-03-30 15:09:00,
2013-03-30 11:14:00,54.2,31.6,30.09,NNE,33,1.0,1.0,42,0.00,,OVC,0.00,784.00,VWS V14.00,2013-03-30 15:14:00,
2013-03-30 11:19:00,54.2,31.6,30.09,North,355,0.0,4.0,42,0.00,,OVC,0.00,796.00,VWS V14.00,2013-03-30 15:19:00,
2013-03-30 11:24:00,54.3,32.3,30.09,East,101,5.0,5.0,43,0.00,,OVC,0.00,831.00,VWS V14.00,2013-03-30 15:24:00,
2013-03-30 11:29:00,54.6,32.0,30.09,ENE,66,0.0,0.0,42,0.00,,OVC,0.00,858.00,VWS V14.00,2013-03-30 15:29:00,
2013-03-30 11:34:00,54.8,32.2,30.08,ENE,74,0.0,4.0,42,0.00,,OVC,0.00,844.00,VWS V14.00,2013-03-30 15:34:00,
2013-03-30 11:39:00,55.3,32.6,30.08,East,86,0.0,4.0,42,0.00,,OVC,0.00,925.00,VWS V14.00,2013-03-30 15:39:00,
2013-03-30 11:44:00,55.9,32.0,30.08,SW,221,0.0,2.0,40,0.00,,OVC,0.00,974.00,VWS V14.00,2013-03-30 15:44:00,
2013-03-30 11:49:00,55.9,32.0,30.08,ENE,58,1.0,5.0,40,0.00,,OVC,0.00,248.00,VWS V14.00,2013-03-30 15:49:00,
2013-03-30 11:54:00,55.8,30.6,30.08,ENE,59,2.0,5.0,38,0.00,,OVC,0.00,963.00,VWS V14.00,2013-03-30 15:54:00,
2013-03-30 11:59:00,56.3,31.0,30.07,WSW,238,0.0,2.0,38,0.00,,OVC,0.00,1018.00,VWS V14.00,2013-03-30 15:59:00,
2013-03-30 12:04:00,56.8,31.5,30.07,NNW,343,2.0,4.0,38,0.00,,OVC,0.00,290.00,VWS V14.00,2013-03-30 16:04:00,
2013-03-30 12:09:00,56.3,32.3,30.07,NW,321,2.0,6.0,40,0.00,,OVC,0.00,216.00,VWS V14.00,2013-03-30 16:09:00,
2013-03-30 12:15:00,55.6,30.4,30.07,West,280,0.0,4.0,38,0.00,,OVC,0.00,241.00,VWS V14.00,2013-03-30 16:15:00,
2013-03-30 12:20:00,55.6,31.7,30.07,SSW,201,3.0,10.0,40,0.00,,OVC,0.00,225.00,VWS V14.00,2013-03-30 16:20:00,
2013-03-30 12:25:00,55.6,31.7,30.07,West,276,0.0,10.0,40,0.00,,OVC,0.00,824.00,VWS V14.00,2013-03-30 16:25:00,
2013-03-30 12:30:00,56.0,30.8,30.06,NNW,338,0.0,4.0,38,0.00,,OVC,0.00,1083.00,VWS V14.00,2013-03-30 16:30:00,
2013-03-30 12:35:00,56.5,31.2,30.06,NNW,340,4.0,8.0,38,0.00,,OVC,0.00,327.00,VWS V14.00,2013-03-30 16:35:00,
2013-03-30 12:40:00,56.6,31.3,30.06,West,260,4.0,8.0,38,0.00,,OVC,0.00,348.00,VWS V14.00,2013-03-30 16:40:00,
2013-03-30 12:45:00,56.6,30.0,30.06,SW,217,0.0,4.0,36,0.00,,OVC,0.00,260.00,VWS V14.00,2013-03-30 16:45:00,
2013-03-30 12:50:00,56.4,30.5,30.06,North,355,2.0,4.0,37,0.00,,OVC,0.00,236.00,VWS V14.00,2013-03-30 16:50:00,
2013-03-30 12:55:00,56.0,29.4,30.06,NW,323,0.0,5.0,36,0.00,,OVC,0.00,209.00,VWS V14.00,2013-03-30 16:55:00,
2013-03-30 13:00:00,55.7,29.9,30.06,NNW,335,1.0,5.0,37,0.00,,OVC,0.00,221.00,VWS V14.00,2013-03-30 17:00:00,
2013-03-30 13:05:00,56.0,28.8,30.05,WNW,290,1.0,7.0,35,0.00,,OVC,0.00,1071.00,VWS V14.00,2013-03-30 17:05:00,
2013-03-30 13:10:00,56.2,28.9,30.06,NE,40,2.0,7.0,35,0.00,,OVC,0.00,322.00,VWS V14.00,2013-03-30 17:10:00,
2013-03-30 13:15:00,56.1,31.5,30.06,East,86,1.0,4.0,39,0.00,,OVC,0.00,213.00,VWS V14.00,2013-03-30 17:15:00,
2013-03-30 13:20:00,55.6,31.7,30.06,ENE,65,0.0,5.0,40,0.00,,OVC,0.00,223.00,VWS V14.00,2013-03-30 17:20:00,
2013-03-30 13:25:00,55.1,31.8,30.05,SE,125,1.0,6.0,41,0.00,,OVC,0.00,204.00,VWS V14.00,2013-03-30 17:25:00,
2013-03-30 13:30:00,54.7,31.5,30.05,NE,49,1.0,5.0,41,0.00,,OVC,0.00,262.00,VWS V14.00,2013-03-30 17:30:00,
2013-03-30 13:35:00,54.7,32.1,30.05,NNE,28,0.0,5.0,42,0.00,,OVC,0.00,299.00,VWS V14.00,2013-03-30 17:35:00,
2013-03-30 13:40:00,55.3,32.0,30.05,ESE,121,7.0,7.0,41,0.00,,OVC,0.00,1063.00,VWS V14.00,2013-03-30 17:40:00,
2013-03-30 13:45:00,55.5,31.6,30.04,ESE,114,5.0,8.0,40,0.00,,OVC,0.00,970.00,VWS V14.00,2013-03-30 17:45:00,
2013-03-30 13:50:00,55.8,31.9,30.04,SSW,198,1.0,8.0,40,0.00,,OVC,0.00,1060.00,VWS V14.00,2013-03-30 17:50:00,
2013-03-30 13:56:00,56.1,32.1,30.04,East,88,1.0,8.0,40,0.00,,OVC,0.00,320.00,VWS V14.00,2013-03-30 17:56:00,
2013-03-30 14:01:00,56.3,32.3,30.03,ESE,105,2.0,5.0,40,0.00,,OVC,0.00,1067.00,VWS V14.00,2013-03-30 18:01:00,
2013-03-30 14:06:00,56.3,31.7,30.04,NE,44,1.0,8.0,39,0.00,,OVC,0.00,287.00,VWS V14.00,2013-03-30 18:06:00,
2013-03-30 14:11:00,55.9,32.0,30.04,East,99,2.0,8.0,40,0.00,,OVC,0.00,1053.00,VWS V14.00,2013-03-30 18:11:00,
2013-03-30 14:16:00,55.9,32.0,30.03,East,88,1.0,4.0,40,0.00,,OVC,0.00,253.00,VWS V14.00,2013-03-30 18:16:00,
2013-03-30 14:21:00,55.8,31.9,30.03,East,101,0.0,4.0,40,0.00,,OVC,0.00,169.00,VWS V14.00,2013-03-30 18:21:00,
2013-03-30 14:26:00,55.7,31.8,30.03,East,85,0.0,6.0,40,0.00,,OVC,0.00,200.00,VWS V14.00,2013-03-30 18:26:00,
2013-03-30 14:31:00,55.5,32.2,30.03,NE,39,0.0,3.0,41,0.00,,OVC,0.00,993.00,VWS V14.00,2013-03-30 18:31:00,
2013-03-30 14:37:00,55.4,31.5,30.03,NE,38,2.0,8.0,40,0.00,,OVC,0.00,234.00,VWS V14.00,2013-03-30 18:37:00,
2013-03-30 14:42:00,55.6,31.7,30.02,East,96,1.0,8.0,40,0.00,,OVC,0.00,192.00,VWS V14.00,2013-03-30 18:42:00,
2013-03-30 14:47:00,55.8,31.9,30.02,ESE,105,0.0,4.0,40,0.00,,OVC,0.00,176.00,VWS V14.00,2013-03-30 18:47:00,
2013-03-30 14:52:00,56.2,32.2,30.01,ENE,74,2.0,4.0,40,0.00,,OVC,0.00,896.00,VWS V14.00,2013-03-30 18:52:00,
2013-03-30 14:57:00,57.1,31.1,30.01,ESE,117,0.0,7.0,37,0.00,,OVC,0.00,891.00,VWS V14.00,2013-03-30 18:57:00,
2013-03-30 15:02:00,58.1,32.0,30.01,SE,134,0.0,5.0,37,0.00,,OVC,0.00,858.00,VWS V14.00,2013-03-30 19:02:00,
2013-03-30 15:07:00,58.8,33.9,30.01,SSW,197,2.0,5.0,39,0.00,,OVC,0.00,861.00,VWS V14.00,2013-03-30 19:07:00,
2013-03-30 15:12:00,59.3,31.7,30.01,South,170,6.0,6.0,35,0.00,,OVC,0.00,858.00,VWS V14.00,2013-03-30 19:12:00,
2013-03-30 15:17:00,59.4,32.5,30.01,ENE,61,1.0,4.0,36,0.00,,OVC,0.00,833.00,VWS V14.00,2013-03-30 19:17:00,
2013-03-30 15:22:00,59.4,32.5,30.00,East,99,0.0,5.0,36,0.00,,OVC,0.00,874.00,VWS V14.00,2013-03-30 19:22:00,
2013-03-30 15:27:00,59.6,31.9,30.00,NE,53,0.0,5.0,35,0.00,,OVC,0.00,287.00,VWS V14.00,2013-03-30 19:27:00,
2013-03-30 15:32:00,59.6,32.6,30.00,ENE,62,0.0,1.0,36,0.00,,OVC,0.00,788.00,VWS V14.00,2013-03-30 19:32:00,
2013-03-30 15:38:00,59.4,32.5,30.00,NNE,19,2.0,3.0,36,0.00,,OVC,0.00,169.00,VWS V14.00,2013-03-30 19:38:00,
2013-03-30 15:43:00,59.1,32.9,30.00,ENE,58,0.0,3.0,37,0.00,,OVC,0.00,752.00,VWS V14.00,2013-03-30 19:43:00,
2013-03-30 15:48:00,59.3,31.0,30.00,SSW,198,0.0,7.0,34,0.00,,OVC,0.00,765.00,VWS V14.00,2013-03-30 19:48:00,
2013-03-30 15:53:00,59.6,32.6,30.00,East,98,0.0,7.0,36,0.00,,OVC,0.00,738.00,VWS V14.00,2013-03-30 19:53:00,
2013-03-30 15:58:00,59.8,32.8,29.99,North,355,0.0,7.0,36,0.00,,OVC,0.00,413.00,VWS V14.00,2013-03-30 19:58:00,
2013-03-30 16:03:00,59.8,32.1,29.99,SSW,211,0.0,5.0,35,0.00,,OVC,0.00,606.00,VWS V14.00,2013-03-30 20:03:00,
2013-03-30 16:08:00,59.9,32.9,29.99,South,173,0.0,5.0,36,0.00,,OVC,0.00,114.00,VWS V14.00,2013-03-30 20:08:00,
2013-03-30 16:13:00,59.7,33.4,29.99,East,94,4.0,4.0,37,0.00,,OVC,0.00,642.00,VWS V14.00,2013-03-30 20:13:00,
2013-03-30 16:18:00,58.8,32.6,30.00,ESE,113,0.0,6.0,37,0.00,,OVC,0.00,649.00,VWS V14.00,2013-03-30 20:18:00,
2013-03-30 16:23:00,58.8,33.3,30.00,East,81,2.0,6.0,38,0.00,,OVC,0.00,526.00,VWS V14.00,2013-03-30 20:23:00,
2013-03-30 16:28:00,59.2,32.3,30.00,NW,304,0.0,2.0,36,0.00,,OVC,0.00,434.00,VWS V14.00,2013-03-30 20:28:00,
2013-03-30 16:33:00,59.6,33.3,30.00,WNW,284,5.0,6.0,37,0.00,,OVC,0.00,390.00,VWS V14.00,2013-03-30 20:33:00,
2013-03-30 16:38:00,59.4,33.8,30.00,NNE,19,2.0,6.0,38,0.00,,OVC,0.00,357.00,VWS V14.00,2013-03-30 20:38:00,
2013-03-30 16:43:00,59.4,33.1,30.00,SW,230,0.0,0.0,37,0.00,,OVC,0.00,301.00,VWS V14.00,2013-03-30 20:43:00,
2013-03-30 16:48:00,59.0,32.8,30.00,NNW,329,0.0,5.0,37,0.00,,OVC,0.00,276.00,VWS V14.00,2013-03-30 20:48:00,
2013-03-30 16:53:00,58.4,32.9,30.00,NNE,22,4.0,7.0,38,0.00,,OVC,0.00,387.00,VWS V14.00,2013-03-30 20:53:00,
2013-03-30 16:59:00,57.9,33.8,30.00,ENE,69,3.0,4.0,40,0.00,,OVC,0.00,301.00,VWS V14.00,2013-03-30 20:59:00,
2013-03-30 17:04:00,57.6,34.7,30.00,North,355,7.0,7.0,42,0.00,,OVC,0.00,174.00,VWS V14.00,2013-03-30 21:04:00,
2013-03-30 17:09:00,57.3,31.9,30.00,ESE,114,5.0,12.0,38,0.00,,OVC,0.00,104.00,VWS V14.00,2013-03-30 21:09:00,
2013-03-30 17:14:00,57.5,32.1,30.00,West,276,1.0,1.0,38,0.00,,OVC,0.00,202.00,VWS V14.00,2013-03-30 21:14:00,
2013-03-30 17:19:00,57.6,32.2,30.00,ESE,118,0.0,4.0,38,0.00,,OVC,0.00,97.00,VWS V14.00,2013-03-30 21:19:00,
2013-03-30 17:24:00,57.6,32.2,29.99,NE,36,3.0,4.0,38,0.00,,OVC,0.00,283.00,VWS V14.00,2013-03-30 21:24:00,
2013-03-30 17:29:00,57.4,32.7,29.99,NNE,17,1.0,2.0,39,0.00,,OVC,0.00,174.00,VWS V14.00,2013-03-30 21:29:00,
2013-03-30 17:34:00,57.3,31.3,29.99,NNE,25,0.0,2.0,37,0.00,,OVC,0.00,209.00,VWS V14.00,2013-03-30 21:34:00,
2013-03-30 17:39:00,57.6,32.2,29.99,East,91,1.0,3.0,38,0.00,,OVC,0.00,255.00,VWS V14.00,2013-03-30 21:39:00,
2013-03-30 17:44:00,57.7,32.3,29.99,East,80,0.0,1.0,38,0.00,,OVC,0.00,251.00,VWS V14.00,2013-03-30 21:44:00,
2013-03-30 17:49:00,57.8,32.4,29.99,ESE,102,1.0,6.0,38,0.00,,OVC,0.00,162.00,VWS V14.00,2013-03-30 21:49:00,
2013-03-30 17:54:00,57.6,32.2,29.99,ENE,59,0.0,7.0,38,0.00,,OVC,0.00,81.00,VWS V14.00,2013-03-30 21:54:00,
2013-03-30 17:59:00,57.2,31.8,30.00,East,92,0.0,2.0,38,0.00,,OVC,0.00,90.00,VWS V14.00,2013-03-30 21:59:00,
2013-03-30 18:04:00,57.0,32.3,30.00,SSE,157,0.0,4.0,39,0.00,,OVC,0.00,163.00,VWS V14.00,2013-03-30 22:04:00,
2013-03-30 18:09:00,56.8,31.5,30.00,South,189,0.0,4.0,38,0.00,,OVC,0.00,121.00,VWS V14.00,2013-03-30 22:09:00,
2013-03-30 18:14:00,56.6,32.0,30.00,East,101,2.0,4.0,39,0.00,,OVC,0.00,116.00,VWS V14.00,2013-03-30 22:14:00,
2013-03-30 18:19:00,56.3,32.3,30.00,East,96,1.0,5.0,40,0.00,,OVC,0.00,79.00,VWS V14.00,2013-03-30 22:19:00,
2013-03-30 18:24:00,56.1,32.1,30.00,East,95,0.0,5.0,40,0.00,,OVC,0.00,54.00,VWS V14.00,2013-03-30 22:24:00,
2013-03-30 18:29:00,56.0,32.7,30.00,East,95,0.0,0.0,41,0.00,,OVC,0.00,67.00,VWS V14.00,2013-03-30 22:29:00,
2013-03-30 18:34:00,56.0,32.7,30.00,ESE,107,0.0,2.0,41,0.00,,OVC,0.00,44.00,VWS V14.00,2013-03-30 22:34:00,
2013-03-30 18:39:00,55.9,32.0,30.00,East,80,0.0,2.0,40,0.00,,OVC,0.00,42.00,VWS V14.00,2013-03-30 22:39:00,
2013-03-30 18:44:00,55.8,32.5,30.00,East,80,0.0,0.0,41,0.00,,OVC,0.00,35.00,VWS V14.00,2013-03-30 22:44:00,
2013-03-30 18:49:00,55.8,31.9,30.00,SSW,210,0.0,2.0,40,0.00,,OVC,0.00,33.00,VWS V14.00,2013-03-30 22:49:00,
2013-03-30 18:55:00,55.7,32.4,30.00,SSW,210,0.0,2.0,41,0.00,,OVC,0.00,23.00,VWS V14.00,2013-03-30 22:55:00,
2013-03-30 19:00:00,55.4,33.3,30.00,SSE,157,0.0,1.0,43,0.00,,OVC,0.00,18.00,VWS V14.00,2013-03-30 23:00:00,
2013-03-30 19:05:00,55.0,34.6,30.00,SSE,157,0.0,1.0,46,0.00,,OVC,0.00,12.00,VWS V14.00,2013-03-30 23:05:00,
2013-03-30 19:10:00,54.7,33.8,30.00,SSE,157,0.0,1.0,45,0.00,,OVC,0.00,9.00,VWS V14.00,2013-03-30 23:10:00,
2013-03-30 19:15:00,54.3,33.4,30.00,SSE,157,0.0,0.0,45,0.00,,OVC,0.00,5.00,VWS V14.00,2013-03-30 23:15:00,
2013-03-30 19:20:00,53.8,34.1,30.01,SSE,157,0.0,1.0,47,0.00,,OVC,0.00,5.00,VWS V14.00,2013-03-30 23:20:00,
2013-03-30 19:25:00,53.2,34.0,30.01,SSE,157,0.0,1.0,48,0.00,,OVC,0.00,0.00,VWS V14.00,2013-03-30 23:25:00,
2013-03-30 19:30:00,52.8,34.7,30.01,SSE,157,0.0,0.0,50,0.00,,OVC,0.00,0.00,VWS V14.00,2013-03-30 23:30:00,
2013-03-30 19:35:00,52.2,35.1,30.01,SSE,157,0.0,0.0,52,0.00,,OVC,0.00,0.00,VWS V14.00,2013-03-30 23:35:00,
2013-03-30 19:40:00,51.7,34.7,30.00,SSE,157,0.0,0.0,52,0.00,,OVC,0.00,0.00,VWS V14.00,2013-03-30 23:40:00,
2013-03-30 19:45:00,51.2,35.1,30.01,SSE,157,0.0,0.0,54,0.00,,OVC,0.00,0.00,VWS V14.00,2013-03-30 23:45:00,
2013-03-30 19:50:00,50.8,35.2,30.01,SSE,157,0.0,0.0,55,0.00,,OVC,0.00,0.00,VWS V14.00,2013-03-30 23:50:00,
2013-03-30 19:55:00,50.5,35.0,30.00,SSE,157,0.0,0.0,55,0.00,,OVC,0.00,0.00,VWS V14.00,2013-03-30 23:55:00,
2013-03-30 20:00:00,50.2,35.1,30.01,SSE,157,0.0,0.0,56,0.00,,OVC,0.00,0.00,VWS V14.00,2013-03-31 00:00:00,
2013-03-30 20:06:00,49.8,35.2,30.01,SSE,157,0.0,0.0,57,0.00,,OVC,0.00,0.00,VWS V14.00,2013-03-31 00:06:00,
2013-03-30 20:11:00,49.5,34.9,30.01,SSE,157,0.0,0.0,57,0.00,,OVC,0.00,0.00,VWS V14.00,2013-03-31 00:11:00,
2013-03-30 20:16:00,49.3,34.3,30.01,SSE,157,0.0,0.0,56,0.00,,OVC,0.00,0.00,VWS V14.00,2013-03-31 00:16:00,
2013-03-30 20:21:00,49.0,32.6,30.01,SSE,157,0.0,0.0,53,0.00,,OVC,0.00,0.00,VWS V14.00,2013-03-31 00:21:00,
2013-03-30 20:26:00,48.8,32.9,30.02,SSE,157,0.0,0.0,54,0.00,,OVC,0.00,0.00,VWS V14.00,2013-03-31 00:26:00,
2013-03-30 20:31:00,48.5,32.2,30.01,SSE,157,0.0,0.0,53,0.00,,OVC,0.00,0.00,VWS V14.00,2013-03-31 00:31:00,
2013-03-30 20:36:00,48.1,32.3,30.02,SSE,157,0.0,0.0,54,0.00,,OVC,0.00,0.00,VWS V14.00,2013-03-31 00:36:00,
2013-03-30 20:42:00,47.9,31.6,30.02,SSE,157,0.0,0.0,53,0.00,,OVC,0.00,0.00,VWS V14.00,2013-03-31 00:42:00,
2013-03-30 20:47:00,47.7,31.9,30.02,SSE,157,0.0,0.0,54,0.00,,OVC,0.00,0.00,VWS V14.00,2013-03-31 00:47:00,
2013-03-30 20:52:00,47.4,31.6,30.02,SSE,157,0.0,0.0,54,0.00,,OVC,0.00,0.00,VWS V14.00,2013-03-31 00:52:00,
2013-03-30 20:57:00,47.2,31.9,30.02,SSE,157,0.0,0.0,55,0.00,,OVC,0.00,0.00,VWS V14.00,2013-03-31 00:57:00,
2013-03-30 21:02:00,47.0,31.2,30.02,SSE,157,0.0,0.0,54,0.00,,OVC,0.00,0.00,VWS V14.00,2013-03-31 01:02:00,
2013-03-30 21:07:00,46.8,31.0,30.03,SSE,157,0.0,0.0,54,0.00,,OVC,0.00,0.00,VWS V14.00,2013-03-31 01:07:00,
2013-03-30 21:12:00,46.5,31.2,30.02,SSE,157,0.0,0.0,55,0.00,,OVC,0.00,0.00,VWS V14.00,2013-03-31 01:12:00,
2013-03-30 21:17:00,46.3,31.0,30.02,SSE,157,0.0,0.0,55,0.00,,OVC,0.00,0.00,VWS V14.00,2013-03-31 01:17:00,
2013-03-30 21:22:00,46.2,30.5,30.02,SSE,157,0.0,0.0,54,0.00,,OVC,0.00,0.00,VWS V14.00,2013-03-31 01:22:00,
2013-03-30 21:27:00,46.0,30.8,30.02,SSE,157,0.0,0.0,55,0.00,,OVC,0.00,0.00,VWS V14.00,2013-03-31 01:27:00,
2013-03-30 21:32:00,45.8,31.0,30.02,SSE,157,0.0,0.0,56,0.00,,OVC,0.00,0.00,VWS V14.00,2013-03-31 01:32:00,
2013-03-30 21:37:00,45.5,31.2,30.03,SSE,157,0.0,0.0,57,0.00,,OVC,0.00,0.00,VWS V14.00,2013-03-31 01:37:00,
2013-03-30 21:42:00,45.0,30.3,30.03,SSE,157,0.0,1.0,56,0.00,,OVC,0.00,0.00,VWS V14.00,2013-03-31 01:42:00,
2013-03-30 21:48:00,44.5,30.7,30.03,SSE,157,0.0,0.0,58,0.00,,OVC,0.00,0.00,VWS V14.00,2013-03-31 01:48:00,
2013-03-30 21:53:00,44.1,30.7,30.03,SSE,157,0.0,0.0,59,0.00,,OVC,0.00,0.00,VWS V14.00,2013-03-31 01:53:00,
2013-03-30 21:58:00,43.9,30.5,30.03,SSE,157,0.0,0.0,59,0.00,,OVC,0.00,0.00,VWS V14.00,2013-03-31 01:58:00,
2013-03-30 22:03:00,43.8,30.8,30.03,SSE,157,0.0,0.0,60,0.00,,OVC,0.00,0.00,VWS V14.00,2013-03-31 02:03:00,
2013-03-30 22:08:00,43.7,31.1,30.03,SSE,157,0.0,0.0,61,0.00,,OVC,0.00,0.00,VWS V14.00,2013-03-31 02:08:00,
2013-03-30 22:13:00,43.6,31.0,30.03,SSE,157,0.0,0.0,61,0.00,,OVC,0.00,0.00,VWS V14.00,2013-03-31 02:13:00,
2013-03-30 22:18:00,43.6,32.2,30.03,SSE,157,0.0,0.0,64,0.00,,OVC,0.00,0.00,VWS V14.00,2013-03-31 02:18:00,
2013-03-30 22:23:00,43.7,33.1,30.03,SSE,157,0.0,0.0,66,0.00,,OVC,0.00,0.00,VWS V14.00,2013-03-31 02:23:00,
2013-03-30 22:28:00,43.7,32.7,30.03,SSE,157,0.0,0.0,65,0.00,,OVC,0.00,0.00,VWS V14.00,2013-03-31 02:28:00,
2013-03-30 22:33:00,43.7,33.1,30.03,SSE,157,0.0,0.0,66,0.00,,OVC,0.00,0.00,VWS V14.00,2013-03-31 02:33:00,
2013-03-30 22:38:00,43.7,34.6,30.03,SSE,157,0.0,0.0,70,0.00,,OVC,0.00,0.00,VWS V14.00,2013-03-31 02:38:00,
2013-03-30 22:43:00,43.7,34.9,30.02,SSE,157,0.0,0.0,71,0.00,,OVC,0.00,0.00,VWS V14.00,2013-03-31 02:43:00,
2013-03-30 22:48:00,43.7,35.3,30.02,SSE,157,0.0,0.0,72,0.00,,OVC,0.00,0.00,VWS V14.00,2013-03-31 02:48:00,
2013-03-30 22:53:00,43.6,35.5,30.03,SSE,157,0.0,0.0,73,0.00,,OVC,0.00,0.00,VWS V14.00,2013-03-31 02:53:00,
2013-03-30 22:58:00,43.6,35.9,30.02,SSE,157,0.0,0.0,74,0.00,,OVC,0.00,0.00,VWS V14.00,2013-03-31 02:58:00,
2013-03-30 23:03:00,43.6,35.9,30.02,SSE,157,0.0,0.0,74,0.00,,OVC,0.00,0.00,VWS V14.00,2013-03-31 03:03:00,
2013-03-30 23:08:00,43.4,35.7,30.02,SSE,157,0.0,0.0,74,0.00,,OVC,0.00,0.00,VWS V14.00,2013-03-31 03:08:00,
2013-03-30 23:13:00,43.3,35.9,30.02,SSE,157,0.0,0.0,75,0.00,,OVC,0.00,0.00,VWS V14.00,2013-03-31 03:13:00,
2013-03-30 23:18:00,43.2,36.2,30.01,SSE,157,0.0,0.0,76,0.00,,OVC,0.00,0.00,VWS V14.00,2013-03-31 03:18:00,
2013-03-30 23:23:00,43.1,36.1,30.01,SSE,157,0.0,0.0,76,0.00,,OVC,0.00,0.00,VWS V14.00,2013-03-31 03:23:00,
2013-03-30 23:28:00,42.9,35.9,30.01,SSE,157,0.0,0.0,76,0.00,,OVC,0.00,0.00,VWS V14.00,2013-03-31 03:28:00,
2013-03-30 23:33:00,42.8,35.8,30.01,SSE,157,0.0,0.0,76,0.00,,OVC,0.00,0.00,VWS V14.00,2013-03-31 03:33:00,
2013-03-30 23:38:00,42.7,35.7,30.01,SSE,157,0.0,0.0,76,0.00,,OVC,0.00,0.00,VWS V14.00,2013-03-31 03:38:00,
2013-03-30 23:43:00,42.5,35.8,30.02,SSE,157,0.0,0.0,77,0.00,,OVC,0.00,0.00,VWS V14.00,2013-03-31 03:43:00,
2013-03-30 23:48:00,42.3,35.6,30.02,SSE,157,0.0,0.0,77,0.00,,OVC,0.00,0.00,VWS V14.00,2013-03-31 03:48:00,
2013-03-30 23:54:00,42.2,35.8,30.02,SSE,157,0.0,0.0,78,0.00,,OVC,0.00,0.00,VWS V14.00,2013-03-31 03:54:00,
2013-03-30 23:59:00,42.0,35.7,30.02,SSE,157,0.0,0.0,78,0.00,,OVC,0.00,0.00,VWS V14.00,2013-03-31 03:59:00,